Impacts TAF Board
For situational awareness. Not to be used for flight planning purposes.
IDs:

KDTW - Detroit Metro/Wayne, MI, US

Issued at 1253 UTC 19 Apr 2019
Updated at 1419 UTC 19 Apr 2019
Potential Impact None Slight Moderate High
Time1353Z 19/15Z 19/16Z 19/17Z 19/18Z 19/19Z 19/20Z 19/21Z 19/22Z 19/23Z 20/00Z 20/01Z 20/02Z 20/03Z>>
Type OBS PRVL PRVL PRVL PRVL PRVL PRVL PRVL PRVL PRVL PRVL PRVL PRVL PRVL
VIS 10 >6 >6 >6 >6 >6 >6 >6 >6 >6 >6 6 6 6
CIG 10 14 14 14 18 18 18 18 18 18 18 12 12 12
Cover OVC OVC OVC OVC OVC OVC OVC OVC OVC OVC OVC OVC OVC OVC
FltCat MVFR MVFR MVFR MVFR MVFR MVFR MVFR MVFR MVFR MVFR MVFR MVFR MVFR MVFR
WX -- -- -- -- -- -- -- -- -- -- -- -DZ -DZ -DZ
WDir 360 360 360 360 10 10 10 10 10 10 10 10 10 10
WSpd 9 13 13 13 15 15 15 15 15 15 15 18 18 18
WGst -- 22 22 22 26 26 26 26 26 26 26 -- -- --
Raw TAF
KDTW 191253Z 1913/2018 36011KT 3SM -RA SCT008 BKN012 OVC040
  FM191500 36013G22KT P6SM OVC014
  FM191800 01015G26KT P6SM SCT012 OVC018
  FM200100 01018KT 6SM -DZ OVC012
  FM200600 02015G25KT 5SM -RA OVC010


Raw METAR
KDTW 191353Z 36009KT 10SM OVC010 06/03 A2967 RMK AO2 RAE16 SLP048 P0000 T00610033
KDTW 191253Z 02013KT 8SM -RA BKN012 BKN055 OVC095 06/04 A2963 RMK AO2 SLP035 P0004 T00610039
KDTW 191153Z 36008KT 3SM -RA BR SCT007 BKN012 OVC040 06/04 A2965 RMK AO2 TWR VIS 4 SLP041 P0004 60034 70049 T00610039 10083 20061 53007
KDTW 191138Z 36010KT 4SM -RA BR SCT007 BKN012 OVC040 06/04 A2964 RMK AO2 P0002 T00610039

METAR Board
Radar Display
Forecast Discussion
For situational awareness. Not to be used for flight planning purposes.